Mustafa Dayi — TCZF2 — position and weather

sailwx.info

Track history (hours):
 
Tides and Currents Weather Stations Pressure Air Temp Water Temp Dewpoint Dewpoint Depression Visibility Wind Speed Wind Dir Waves Ship Positions

Mustafa Dayi

Last reported at 2014-Dec-13 11:10 UTC. Time now 2014-Dec-21 04:06 UTC.
Position N 35°25' E 032°29'.

Length 183 m; draft 10.5 m.

Type: Ship. MMSI: 271042433.

Date/timePositionNaut miles runAvg speedWind from/ knotsBaromVisibWave heightAir tempDewpointWater temp
2014-Dec-13 11:10N 35°25' E 032°29'1012.8
2014-Dec-13 10:22N 35°30' E 032°39'1213.7
2014-Dec-13 09:29N 35°36' E 032°52'23 0.8
2014-Dec-12 04:31N 35°59' E 032°51'30111.2
2014-Dec-11 01:32N 37°21' E 026°50'1313.0
2014-Dec-11 00:30N 37°32' E 026°40'1712.7
2014-Dec-10 23:10N 37°45' E 026°27'1013.0
2014-Dec-10 22:26N 37°52' E 026°18'1613.6
2014-Dec-10 21:15N 38°03' E 026°03'  
2014-Dec-06 14:13N 40°45' E 029°39'9 9.5
2014-Dec-06 13:15N 40°44' E 029°27'811.7
2014-Dec-06 12:33N 40°44' E 029°16'1414.4
2014-Dec-06 11:33N 40°46' E 028°58'1413.8
2014-Dec-06 10:33N 40°53' E 028°42'5 3.7
2014-Dec-06 09:11N 40°58' E 028°40'0 0.0
2014-Dec-06 07:28N 40°58' E 028°40'0 0.0
2014-Dec-06 05:27N 40°58' E 028°40'0 0.0
2014-Dec-06 04:33N 40°58' E 028°40'0 0.0
2014-Dec-06 03:20N 40°58' E 028°40'0 0.0
2014-Dec-06 02:32N 40°58' E 028°40'0 0.0
2014-Dec-06 01:31N 40°58' E 028°40'0 0.0
2014-Dec-06 00:31N 40°58' E 028°40'0 0.0
2014-Dec-05 22:05N 40°58' E 028°40'0 0.0
2014-Dec-05 21:17N 40°58' E 028°40'0 0.0
2014-Dec-05 20:23N 40°58' E 028°40'0 0.0
2014-Dec-05 19:28N 40°58' E 028°40'0 0.0
2014-Dec-05 18:33N 40°58' E 028°40'2 0.4
2014-Dec-05 13:15N 40°57' E 028°38'0 0.0
2014-Dec-05 06:12N 40°57' E 028°38'0 0.0
2014-Dec-04 08:33N 40°57' E 028°38'0 0.0
2014-Dec-04 06:14N 40°57' E 028°38'0 0.0
2014-Dec-04 01:24N 40°56' E 028°38'0 0.0
2014-Dec-03 23:11N 40°56' E 028°38'0 0.0
2014-Dec-03 19:33N 40°56' E 028°38'0 0.0
2014-Dec-03 17:33N 40°57' E 028°38'0 0.0
2014-Dec-03 15:18N 40°57' E 028°38'1011.6
2014-Dec-03 14:25N 40°54' E 028°25'  
Track history (hours):
 
Tides and Currents Weather Stations Pressure Air Temp Water Temp Dewpoint Dewpoint Depression Visibility Wind Speed Wind Dir Waves Ship Positions

Mustafa Dayi

Last reported at 2014-Dec-13 11:10 UTC. Time now 2014-Dec-21 04:06 UTC.
Position N 35°25' E 032°29'.

Length 183 m; draft 10.5 m.

Type: Ship. MMSI: 271042433.

Date/timePositionNaut miles runAvg speedWind from/ knotsBaromVisibWave heightAir tempDewpointWater temp
2014-Dec-13 11:10N 35°25' E 032°29'1012.8
2014-Dec-13 10:22N 35°30' E 032°39'1213.7
2014-Dec-13 09:29N 35°36' E 032°52'23 0.8
2014-Dec-12 04:31N 35°59' E 032°51'30111.2
2014-Dec-11 01:32N 37°21' E 026°50'1313.0
2014-Dec-11 00:30N 37°32' E 026°40'1712.7
2014-Dec-10 23:10N 37°45' E 026°27'1013.0
2014-Dec-10 22:26N 37°52' E 026°18'1613.6
2014-Dec-10 21:15N 38°03' E 026°03'  
2014-Dec-06 14:13N 40°45' E 029°39'9 9.5
2014-Dec-06 13:15N 40°44' E 029°27'811.7
2014-Dec-06 12:33N 40°44' E 029°16'1414.4
2014-Dec-06 11:33N 40°46' E 028°58'1413.8
2014-Dec-06 10:33N 40°53' E 028°42'5 3.7
2014-Dec-06 09:11N 40°58' E 028°40'0 0.0
2014-Dec-06 07:28N 40°58' E 028°40'0 0.0
2014-Dec-06 05:27N 40°58' E 028°40'0 0.0
2014-Dec-06 04:33N 40°58' E 028°40'0 0.0
2014-Dec-06 03:20N 40°58' E 028°40'0 0.0
2014-Dec-06 02:32N 40°58' E 028°40'0 0.0
2014-Dec-06 01:31N 40°58' E 028°40'0 0.0
2014-Dec-06 00:31N 40°58' E 028°40'0 0.0
2014-Dec-05 22:05N 40°58' E 028°40'0 0.0
2014-Dec-05 21:17N 40°58' E 028°40'0 0.0
2014-Dec-05 20:23N 40°58' E 028°40'0 0.0
2014-Dec-05 19:28N 40°58' E 028°40'0 0.0
2014-Dec-05 18:33N 40°58' E 028°40'2 0.4
2014-Dec-05 13:15N 40°57' E 028°38'0 0.0
2014-Dec-05 06:12N 40°57' E 028°38'0 0.0
2014-Dec-04 08:33N 40°57' E 028°38'0 0.0
2014-Dec-04 06:14N 40°57' E 028°38'0 0.0
2014-Dec-04 01:24N 40°56' E 028°38'0 0.0
2014-Dec-03 23:11N 40°56' E 028°38'0 0.0
2014-Dec-03 19:33N 40°56' E 028°38'0 0.0
2014-Dec-03 17:33N 40°57' E 028°38'0 0.0
2014-Dec-03 15:18N 40°57' E 028°38'1011.6
2014-Dec-03 14:25N 40°54' E 028°25'  

Dump ship's entire track history